Time;durP1;ratioP1;P1;durP2;ratioP2;P2;SDS_P1;SDS_P2;PMS_P1;PMS_P2;Temp;Humidity;BMP_temperature;BMP_pressure;BME280_temperature;BME280_humidity;BME280_pressure;Samples;Min_cycle;Max_cycle;Signal;HPM_P1;HPM_P2
2021/09/02 00:00:34;;;;;;;14.10;11.30;;;11.10;99.90;;;;;;5009396;28;20449;-68
2021/09/02 00:03:01;;;;;;;13.00;11.47;;;11.20;99.90;;;;;;5009396;28;20469;-67
2021/09/02 00:05:30;;;;;;;13.57;12.03;;;11.10;99.90;;;;;;5009037;28;20481;-68
2021/09/02 00:07:58;;;;;;;15.50;12.83;;;11.10;99.90;;;;;;5003588;28;20496;-68
2021/09/02 00:10:25;;;;;;;16.13;14.33;;;11.10;99.90;;;;;;5009344;28;20490;-68
2021/09/02 00:12:52;;;;;;;13.57;12.03;;;11.20;99.90;;;;;;5006770;28;20537;-67
2021/09/02 00:15:19;;;;;;;14.40;12.70;;;11.10;99.90;;;;;;5010679;28;20553;-67
2021/09/02 00:17:45;;;;;;;16.40;12.80;;;11.10;99.90;;;;;;5011031;28;20822;-66
2021/09/02 00:20:13;;;;;;;13.37;11.83;;;11.00;99.90;;;;;;5010578;28;20456;-67
2021/09/02 00:22:42;;;;;;;17.87;14.00;;;10.90;99.90;;;;;;5010287;28;21167;-66
2021/09/02 00:25:10;;;;;;;14.50;12.33;;;11.00;99.90;;;;;;5010993;28;20509;-66
2021/09/02 00:27:37;;;;;;;18.97;12.87;;;11.00;99.90;;;;;;5011060;28;20946;-66
2021/09/02 00:30:05;;;;;;;17.57;14.10;;;11.00;99.90;;;;;;5011036;28;20445;-66
2021/09/02 00:32:32;;;;;;;17.83;14.57;;;11.10;99.90;;;;;;5010424;28;20506;-66
2021/09/02 00:34:59;;;;;;;14.13;12.60;;;11.00;99.90;;;;;;5010906;28;20480;-66
2021/09/02 00:37:26;;;;;;;14.30;12.80;;;11.00;99.90;;;;;;5011293;28;20468;-66
2021/09/02 00:39:54;;;;;;;17.77;13.20;;;10.90;99.90;;;;;;5011029;28;20528;-66
2021/09/02 00:42:21;;;;;;;18.20;13.20;;;10.90;99.90;;;;;;5010716;28;20462;-66
2021/09/02 00:44:48;;;;;;;15.93;13.20;;;10.80;99.90;;;;;;5011120;28;20488;-66
2021/09/02 00:47:16;;;;;;;14.73;12.50;;;10.80;99.90;;;;;;5011013;28;20446;-66
2021/09/02 00:49:43;;;;;;;13.30;11.90;;;10.70;99.90;;;;;;5010601;28;20458;-66
2021/09/02 00:52:12;;;;;;;14.97;13.00;;;10.70;99.90;;;;;;5010559;28;20460;-66
2021/09/02 00:54:41;;;;;;;14.27;12.87;;;10.70;99.90;;;;;;5010812;28;20441;-66
2021/09/02 00:57:10;;;;;;;14.50;13.00;;;10.70;99.90;;;;;;5010765;28;20445;-66
2021/09/02 00:59:38;;;;;;;17.03;13.90;;;10.60;99.90;;;;;;5010625;28;20445;-66
2021/09/02 01:02:05;;;;;;;14.57;12.60;;;10.60;99.90;;;;;;5010118;28;20453;-66
2021/09/02 01:04:32;;;;;;;16.13;12.70;;;10.60;99.90;;;;;;5010741;28;20481;-66
2021/09/02 01:06:59;;;;;;;17.60;13.57;;;10.60;99.90;;;;;;5010770;28;20442;-66
2021/09/02 01:09:27;;;;;;;13.77;12.37;;;10.50;99.90;;;;;;5010638;28;20460;-66
2021/09/02 01:11:55;;;;;;;15.10;12.83;;;10.50;99.90;;;;;;5009906;28;20452;-66
2021/09/02 01:14:23;;;;;;;19.70;14.90;;;10.40;99.90;;;;;;5010458;28;20473;-66
2021/09/02 01:16:51;;;;;;;18.80;14.30;;;10.50;99.90;;;;;;5010332;28;20456;-66
2021/09/02 01:19:19;;;;;;;19.50;13.80;;;10.50;99.90;;;;;;5010121;28;20500;-66
2021/09/02 01:21:47;;;;;;;15.90;12.40;;;10.50;99.90;;;;;;5010055;28;20449;-67
2021/09/02 01:24:16;;;;;;;14.77;12.67;;;10.40;99.90;;;;;;5010231;28;21025;-66
2021/09/02 01:26:43;;;;;;;13.67;12.27;;;10.40;99.90;;;;;;5010291;28;20887;-66
2021/09/02 01:29:13;;;;;;;13.87;12.37;;;10.30;99.90;;;;;;5010009;28;20457;-66
2021/09/02 01:31:41;;;;;;;17.30;12.93;;;10.40;99.90;;;;;;5010727;28;20465;-66
2021/09/02 01:34:08;;;;;;;14.33;12.73;;;10.30;99.90;;;;;;5013889;28;20457;-66
2021/09/02 01:36:35;;;;;;;15.90;11.93;;;10.30;99.90;;;;;;5014135;28;21247;-66
2021/09/02 01:39:02;;;;;;;16.67;13.03;;;10.30;99.90;;;;;;5013896;28;20445;-66
2021/09/02 01:41:30;;;;;;;19.40;15.73;;;10.20;99.90;;;;;;5013793;28;20441;-66
2021/09/02 01:43:57;;;;;;;17.87;14.23;;;10.20;99.90;;;;;;5013684;28;20476;-66
2021/09/02 01:46:23;;;;;;;19.60;14.93;;;10.10;99.90;;;;;;5014221;28;20529;-66
2021/09/02 01:48:54;;;;;;;15.73;12.73;;;10.30;99.90;;;;;;5013888;28;20967;-66
2021/09/02 01:51:21;;;;;;;15.50;13.17;;;10.30;99.90;;;;;;5013786;28;20464;-66
2021/09/02 01:53:48;;;;;;;15.27;13.67;;;10.30;99.90;;;;;;5013887;28;20571;-66
2021/09/02 01:56:14;;;;;;;15.17;13.43;;;10.30;99.90;;;;;;5013805;28;20445;-66
2021/09/02 01:58:43;;;;;;;16.33;14.03;;;10.10;99.90;;;;;;5013803;28;20446;-66
2021/09/02 02:01:09;;;;;;;15.77;13.93;;;10.00;99.90;;;;;;5013966;28;20446;-66
2021/09/02 02:03:36;;;;;;;17.20;14.73;;;10.00;99.90;;;;;;5014200;28;20991;-66
2021/09/02 02:06:03;;;;;;;17.23;14.27;;;10.00;99.90;;;;;;5014141;28;20485;-66
2021/09/02 02:08:30;;;;;;;15.50;13.63;;;10.10;99.90;;;;;;5014535;28;20449;-66
2021/09/02 02:10:57;;;;;;;15.90;12.13;;;10.20;99.90;;;;;;5014106;28;20469;-67
2021/09/02 02:13:24;;;;;;;15.43;13.10;;;10.00;99.90;;;;;;5014233;28;20868;-66
2021/09/02 02:15:52;;;;;;;16.37;13.90;;;10.00;99.90;;;;;;5013450;28;20458;-66
2021/09/02 02:18:19;;;;;;;16.90;12.47;;;10.00;99.90;;;;;;5013484;28;20450;-66
2021/09/02 02:20:46;;;;;;;16.23;13.07;;;10.00;99.90;;;;;;5013462;28;20458;-66
2021/09/02 02:23:12;;;;;;;18.30;14.27;;;10.00;99.90;;;;;;5012926;28;20504;-66
2021/09/02 02:25:40;;;;;;;20.60;14.77;;;10.00;99.90;;;;;;5013328;28;20488;-66
2021/09/02 02:28:07;;;;;;;14.73;13.13;;;10.00;99.90;;;;;;5013522;28;20450;-66
2021/09/02 02:30:34;;;;;;;14.90;12.77;;;10.00;99.90;;;;;;5013358;28;20461;-66
2021/09/02 02:33:03;;;;;;;16.47;14.30;;;9.90;99.90;;;;;;5012896;28;20473;-66
2021/09/02 02:35:29;;;;;;;15.60;13.70;;;9.90;99.90;;;;;;5013097;28;20444;-66
2021/09/02 02:37:56;;;;;;;17.00;14.57;;;9.80;99.90;;;;;;5013066;28;20456;-66
2021/09/02 02:40:23;;;;;;;18.67;14.83;;;9.70;99.90;;;;;;5013215;28;20446;-66
2021/09/02 02:42:50;;;;;;;16.27;14.07;;;9.70;99.90;;;;;;5012537;28;20461;-67
2021/09/02 02:45:17;;;;;;;16.47;13.80;;;9.70;99.90;;;;;;5013467;28;20481;-66
2021/09/02 02:47:44;;;;;;;14.83;12.87;;;9.70;99.90;;;;;;5013135;28;20549;-66
2021/09/02 02:50:13;;;;;;;20.10;14.27;;;9.70;99.90;;;;;;5013685;28;20458;-66
2021/09/02 02:52:39;;;;;;;16.20;13.80;;;9.70;99.90;;;;;;5012267;28;20480;-66
2021/09/02 02:55:07;;;;;;;16.40;13.30;;;9.70;99.90;;;;;;5012826;28;20446;-66
2021/09/02 02:57:34;;;;;;;14.40;12.77;;;9.70;99.90;;;;;;5012684;28;20830;-66
2021/09/02 03:00:01;;;;;;;16.93;13.40;;;9.80;99.90;;;;;;5012997;28;20446;-66
2021/09/02 03:02:28;;;;;;;14.50;13.00;;;9.80;99.90;;;;;;5012316;28;20472;-66
2021/09/02 03:04:55;;;;;;;14.23;12.20;;;9.80;99.90;;;;;;5012646;28;20568;-66
2021/09/02 03:07:23;;;;;;;16.23;13.17;;;9.80;99.90;;;;;;5012644;28;20525;-66
2021/09/02 03:09:50;;;;;;;17.27;14.50;;;9.70;99.90;;;;;;5012796;28;20450;-66
2021/09/02 03:12:17;;;;;;;14.97;12.50;;;9.70;99.90;;;;;;5012353;28;20533;-66
2021/09/02 03:14:44;;;;;;;17.20;12.83;;;9.70;99.90;;;;;;5012443;28;20470;-66
2021/09/02 03:17:10;;;;;;;14.20;12.20;;;9.70;99.90;;;;;;5012547;28;20441;-66
2021/09/02 03:19:37;;;;;;;13.30;11.60;;;9.70;99.90;;;;;;5012600;28;20449;-66
2021/09/02 03:22:05;;;;;;;16.33;12.10;;;9.60;99.90;;;;;;5012336;28;20457;-66
2021/09/02 03:24:33;;;;;;;14.77;12.10;;;9.60;99.90;;;;;;5012627;28;20484;-66
2021/09/02 03:27:00;;;;;;;20.17;12.63;;;9.60;99.90;;;;;;5012361;28;20537;-66
2021/09/02 03:29:27;;;;;;;14.10;11.93;;;9.50;99.90;;;;;;5012155;28;20532;-66
2021/09/02 03:31:54;;;;;;;14.30;11.63;;;9.50;99.90;;;;;;5012018;28;20541;-66
2021/09/02 03:34:20;;;;;;;18.03;12.30;;;9.40;99.90;;;;;;5012026;28;20489;-66
2021/09/02 03:36:49;;;;;;;14.80;12.40;;;9.50;99.90;;;;;;5012414;28;20454;-66
2021/09/02 03:39:16;;;;;;;16.13;11.67;;;9.40;99.90;;;;;;5012176;28;20461;-66
2021/09/02 03:41:44;;;;;;;18.63;11.47;;;9.40;99.90;;;;;;5011796;28;20456;-66
2021/09/02 03:44:12;;;;;;;17.53;12.20;;;9.30;99.90;;;;;;5011769;28;20480;-66
2021/09/02 03:46:39;;;;;;;17.03;12.10;;;9.30;99.90;;;;;;5011797;28;20868;-66
2021/09/02 03:49:06;;;;;;;13.17;11.40;;;9.30;99.90;;;;;;5011929;28;20464;-66
2021/09/02 03:51:33;;;;;;;13.20;10.30;;;9.30;99.90;;;;;;5011548;28;20460;-66
2021/09/02 03:54:00;;;;;;;11.73;10.53;;;9.30;99.90;;;;;;5010984;28;20486;-67
2021/09/02 03:56:27;;;;;;;13.47;11.33;;;9.30;99.90;;;;;;5011623;28;20456;-67
2021/09/02 03:58:55;;;;;;;16.80;12.73;;;9.30;99.90;;;;;;5011500;28;20456;-67
2021/09/02 04:01:22;;;;;;;12.67;11.07;;;9.30;99.90;;;;;;5010914;28;20960;-67
2021/09/02 04:03:49;;;;;;;15.53;12.07;;;9.30;99.90;;;;;;5011389;28;20560;-67
2021/09/02 04:06:16;;;;;;;14.60;11.33;;;9.30;99.90;;;;;;5011266;28;20490;-67
2021/09/02 04:08:43;;;;;;;10.57;9.47;;;9.20;99.90;;;;;;5011337;28;20477;-67
2021/09/02 04:11:09;;;;;;;14.10;11.07;;;9.20;99.90;;;;;;5011395;28;20452;-67
2021/09/02 04:13:36;;;;;;;16.30;12.67;;;9.20;99.90;;;;;;5010837;28;20468;-67
2021/09/02 04:16:05;;;;;;;14.53;12.20;;;9.20;99.90;;;;;;5011028;28;20450;-67
2021/09/02 04:18:32;;;;;;;16.50;12.43;;;9.30;99.90;;;;;;5011327;28;20452;-66
2021/09/02 04:20:59;;;;;;;16.40;12.77;;;9.40;99.90;;;;;;5012338;28;20545;-66
2021/09/02 04:23:26;;;;;;;14.37;11.77;;;9.40;99.90;;;;;;5011039;28;20480;-66
2021/09/02 04:25:52;;;;;;;14.33;11.37;;;9.20;99.90;;;;;;5010998;28;20875;-66
2021/09/02 04:28:19;;;;;;;15.37;12.20;;;9.10;99.90;;;;;;5010928;28;20455;-66
2021/09/02 04:30:46;;;;;;;11.53;10.33;;;9.10;99.90;;;;;;5011132;28;20457;-66
2021/09/02 04:33:14;;;;;;;11.60;10.40;;;9.20;99.90;;;;;;5010641;28;20477;-66
2021/09/02 04:35:41;;;;;;;14.30;11.60;;;9.20;99.90;;;;;;5010876;28;21050;-66
2021/09/02 04:38:08;;;;;;;14.17;11.57;;;9.10;99.90;;;;;;5010901;28;20454;-66
2021/09/02 04:40:35;;;;;;;16.50;11.20;;;9.00;99.90;;;;;;5010725;28;20572;-66
2021/09/02 04:43:03;;;;;;;15.60;11.73;;;9.00;99.90;;;;;;5010042;28;20474;-66
2021/09/02 04:45:30;;;;;;;12.93;11.63;;;9.00;99.90;;;;;;5010851;28;20489;-66
2021/09/02 04:47:57;;;;;;;13.53;11.73;;;9.10;99.90;;;;;;5010920;28;20442;-67
2021/09/02 04:50:25;;;;;;;14.20;12.17;;;9.10;99.90;;;;;;5010628;28;20533;-66
2021/09/02 04:52:52;;;;;;;13.93;11.63;;;9.00;99.90;;;;;;5010300;28;20465;-66
2021/09/02 04:55:19;;;;;;;19.93;12.30;;;9.00;99.90;;;;;;5010546;28;20946;-66
2021/09/02 04:57:45;;;;;;;14.70;12.73;;;9.00;99.90;;;;;;5010523;28;20553;-66
2021/09/02 05:00:14;;;;;;;17.07;12.23;;;9.10;99.90;;;;;;5010626;28;20536;-66
2021/09/02 05:02:40;;;;;;;14.27;12.20;;;9.10;99.90;;;;;;5010202;28;20508;-66
2021/09/02 05:05:08;;;;;;;18.00;14.03;;;9.00;99.90;;;;;;5010637;28;20989;-66
2021/09/02 05:07:36;;;;;;;15.97;11.83;;;9.10;99.90;;;;;;5017375;28;20457;-66
2021/09/02 05:10:08;;;;;;;16.40;13.20;;;9.20;99.90;;;;;;5017115;28;20449;-67
2021/09/02 05:12:35;;;;;;;19.57;14.57;;;9.30;99.90;;;;;;5016797;28;20913;-66
2021/09/02 05:15:02;;;;;;;16.33;12.90;;;9.30;99.90;;;;;;5016852;28;20460;-66
2021/09/02 05:17:28;;;;;;;18.07;13.10;;;9.20;99.90;;;;;;5017408;28;20452;-66
2021/09/02 05:19:55;;;;;;;20.00;13.90;;;9.20;99.90;;;;;;5017167;28;20459;-66
2021/09/02 05:22:22;;;;;;;16.97;11.63;;;9.30;99.90;;;;;;5016793;28;20481;-67
2021/09/02 05:24:51;;;;;;;13.97;12.13;;;9.20;99.90;;;;;;5016698;28;20827;-66
2021/09/02 05:27:18;;;;;;;18.70;12.93;;;9.30;99.90;;;;;;5016937;28;20477;-66
2021/09/02 05:29:45;;;;;;;18.93;13.43;;;9.30;99.90;;;;;;5016576;28;20445;-66
2021/09/02 05:32:11;;;;;;;15.87;12.73;;;9.30;99.90;;;;;;5016219;28;20450;-66
2021/09/02 05:34:38;;;;;;;15.13;12.33;;;9.40;99.90;;;;;;5016619;28;20628;-66
2021/09/02 05:37:10;;;;;;;15.40;12.77;;;9.50;99.90;;;;;;5016435;28;20880;-67
2021/09/02 05:39:37;;;;;;;15.63;13.13;;;9.60;99.90;;;;;;5016846;28;20504;-68
2021/09/02 05:42:06;;;;;;;16.20;12.10;;;9.50;99.90;;;;;;5016245;28;20535;-67
2021/09/02 05:44:33;;;;;;;15.40;12.93;;;9.70;99.90;;;;;;5016480;28;20461;-67
2021/09/02 05:47:00;;;;;;;13.93;12.00;;;9.70;99.90;;;;;;5016742;28;20477;-67
2021/09/02 05:49:27;;;;;;;15.20;12.80;;;9.80;99.90;;;;;;5016572;28;20449;-67
2021/09/02 05:51:54;;;;;;;16.10;12.43;;;9.80;99.90;;;;;;5016104;28;21005;-67
2021/09/02 05:54:20;;;;;;;14.67;13.17;;;9.80;99.90;;;;;;5016856;28;20560;-67
2021/09/02 05:56:47;;;;;;;17.83;13.77;;;9.90;99.90;;;;;;5016684;28;20528;-67
2021/09/02 05:59:16;;;;;;;15.20;13.30;;;10.00;99.90;;;;;;5016427;28;20453;-67
2021/09/02 06:01:43;;;;;;;14.93;13.33;;;10.10;99.90;;;;;;5016029;28;20891;-67
2021/09/02 06:04:11;;;;;;;18.90;13.70;;;10.10;99.90;;;;;;5016237;28;20554;-67
2021/09/02 06:06:37;;;;;;;15.50;13.43;;;10.20;99.90;;;;;;5016290;28;21092;-67
2021/09/02 06:09:04;;;;;;;16.23;13.50;;;10.30;99.90;;;;;;5016528;28;20453;-67
2021/09/02 06:11:31;;;;;;;21.63;13.57;;;10.50;99.90;;;;;;5015977;28;20542;-67
2021/09/02 06:13:58;;;;;;;17.70;12.50;;;10.60;99.90;;;;;;5015984;28;20483;-67
2021/09/02 06:16:26;;;;;;;16.20;13.07;;;10.60;99.90;;;;;;5016194;28;20452;-67
2021/09/02 06:18:53;;;;;;;14.80;11.80;;;10.70;99.90;;;;;;5012169;28;20448;-67
2021/09/02 06:21:20;;;;;;;15.23;12.27;;;10.70;99.90;;;;;;5013181;28;20533;-67
2021/09/02 06:23:47;;;;;;;14.47;11.83;;;10.70;99.90;;;;;;5012795;28;20465;-67
2021/09/02 06:26:14;;;;;;;14.60;13.00;;;10.70;99.90;;;;;;5012844;28;21070;-67
2021/09/02 06:28:40;;;;;;;13.23;11.83;;;10.80;99.90;;;;;;5012871;28;20954;-67
2021/09/02 06:31:07;;;;;;;14.30;12.40;;;11.00;99.90;;;;;;5012706;28;20441;-67
2021/09/02 06:33:36;;;;;;;13.93;12.20;;;11.10;99.90;;;;;;5012288;28;20513;-67
2021/09/02 06:36:03;;;;;;;12.10;10.87;;;11.20;99.90;;;;;;5012695;28;20469;-67
2021/09/02 06:38:30;;;;;;;13.90;12.43;;;11.30;99.90;;;;;;5012811;28;20453;-67
2021/09/02 06:40:57;;;;;;;14.50;11.67;;;11.40;99.90;;;;;;5012773;28;20441;-67
2021/09/02 06:43:24;;;;;;;15.83;13.13;;;11.50;99.90;;;;;;5012102;28;20477;-67
2021/09/02 06:45:51;;;;;;;12.67;11.33;;;11.50;99.90;;;;;;5012255;28;20488;-67
2021/09/02 06:48:17;;;;;;;14.37;12.87;;;11.50;99.90;;;;;;5012206;28;20565;-67
2021/09/02 06:50:46;;;;;;;12.23;10.93;;;11.70;99.90;;;;;;5002041;28;20492;-66
2021/09/02 06:53:13;;;;;;;13.73;12.33;;;11.80;99.90;;;;;;5004609;28;20826;-67
2021/09/02 06:55:39;;;;;;;15.20;12.40;;;11.80;99.90;;;;;;4992657;28;20443;-68
2021/09/02 06:58:06;;;;;;;14.03;11.97;;;11.90;99.90;;;;;;4992754;28;20439;-68
2021/09/02 07:00:33;;;;;;;14.93;12.63;;;12.00;99.90;;;;;;4992443;28;20450;-66
2021/09/02 07:03:00;;;;;;;14.03;12.07;;;12.10;99.90;;;;;;4992499;28;20463;-68
2021/09/02 07:05:27;;;;;;;18.20;13.10;;;12.20;99.90;;;;;;5006149;28;20804;-67
2021/09/02 07:07:55;;;;;;;12.17;10.90;;;12.30;99.90;;;;;;5012014;28;20449;-67
2021/09/02 07:10:22;;;;;;;13.53;11.97;;;12.40;99.90;;;;;;5011966;28;20808;-67
2021/09/02 07:12:49;;;;;;;15.63;12.77;;;12.50;99.90;;;;;;5011650;28;20564;-68
2021/09/02 07:15:16;;;;;;;14.60;12.60;;;12.50;99.90;;;;;;5011773;28;20458;-65
2021/09/02 07:17:43;;;;;;;15.50;13.00;;;12.70;99.90;;;;;;5012119;28;20446;-66
2021/09/02 07:20:11;;;;;;;14.10;12.60;;;12.80;99.90;;;;;;5011876;28;20471;-65
2021/09/02 07:22:38;;;;;;;19.63;12.67;;;12.90;99.90;;;;;;5011395;28;20477;-65
2021/09/02 07:25:07;;;;;;;15.50;12.30;;;13.00;99.90;;;;;;5011693;28;20610;-65
2021/09/02 07:27:34;;;;;;;16.07;13.70;;;13.10;99.90;;;;;;5011416;28;20508;-65
2021/09/02 07:30:01;;;;;;;13.80;12.40;;;13.20;99.90;;;;;;5010775;28;20826;-65
2021/09/02 07:32:28;;;;;;;14.57;12.10;;;13.30;99.90;;;;;;5008100;28;20557;-65
2021/09/02 07:34:54;;;;;;;14.60;13.03;;;13.40;99.90;;;;;;4992035;28;20457;-65
2021/09/02 07:37:21;;;;;;;16.90;12.20;;;13.50;99.90;;;;;;4992064;28;20466;-67
2021/09/02 07:39:48;;;;;;;14.20;11.50;;;13.60;99.90;;;;;;4991920;28;20972;-66
2021/09/02 07:42:16;;;;;;;13.87;12.07;;;13.70;99.90;;;;;;4991559;28;20447;-65
2021/09/02 07:44:43;;;;;;;15.50;11.83;;;13.80;99.90;;;;;;4992080;28;20451;-66
2021/09/02 07:47:11;;;;;;;12.53;11.30;;;13.90;99.90;;;;;;4991925;28;20514;-66
2021/09/02 07:49:38;;;;;;;12.60;11.30;;;14.00;99.90;;;;;;4991833;28;20447;-65
2021/09/02 07:52:05;;;;;;;14.63;11.83;;;14.10;99.90;;;;;;4991431;28;20519;-65
2021/09/02 07:54:32;;;;;;;16.37;12.87;;;14.20;99.90;;;;;;4991461;28;20545;-66
2021/09/02 07:56:58;;;;;;;12.20;10.97;;;14.30;99.90;;;;;;4991469;28;20447;-65
2021/09/02 07:59:27;;;;;;;12.70;10.70;;;14.40;99.90;;;;;;4991872;28;20457;-66
2021/09/02 08:01:54;;;;;;;14.75;12.15;;;14.50;99.90;;;;;;4990722;28;20816;-66
2021/09/02 08:04:21;;;;;;;12.73;11.43;;;14.60;99.90;;;;;;4991512;28;20223;-66
2021/09/02 08:06:48;;;;;;;14.20;11.67;;;14.70;99.90;;;;;;4991510;28;20482;-65
2021/09/02 08:09:15;;;;;;;12.70;11.40;;;14.80;99.90;;;;;;4991419;28;20530;-69
2021/09/02 08:11:42;;;;;;;12.90;11.10;;;14.90;99.90;;;;;;4991369;28;20451;-68
2021/09/02 08:14:08;;;;;;;10.77;9.43;;;15.00;99.90;;;;;;4991773;28;20854;-66
2021/09/02 08:16:37;;;;;;;11.97;10.50;;;15.10;99.90;;;;;;4991428;28;20443;-65
2021/09/02 08:19:04;;;;;;;11.23;10.03;;;15.20;99.90;;;;;;4996210;28;20445;-64
2021/09/02 08:21:31;;;;;;;10.67;9.67;;;15.30;99.90;;;;;;4993770;28;20590;-65
2021/09/02 08:23:59;;;;;;;16.30;10.53;;;15.50;99.90;;;;;;4991160;28;20577;-64
2021/09/02 08:26:27;;;;;;;12.63;9.70;;;15.60;99.90;;;;;;4991194;28;20489;-64
2021/09/02 08:28:54;;;;;;;12.57;8.77;;;15.70;99.90;;;;;;4991369;28;20497;-65
2021/09/02 08:31:21;;;;;;;10.40;9.17;;;15.90;99.90;;;;;;4991310;28;20459;-64
2021/09/02 08:33:49;;;;;;;11.20;9.53;;;16.00;99.90;;;;;;4993651;28;20470;-63
2021/09/02 08:36:16;;;;;;;9.77;8.77;;;16.10;99.90;;;;;;4999971;28;20540;-64
2021/09/02 08:38:47;;;;;;;9.90;8.90;;;16.20;99.90;;;;;;5001282;28;20448;-66
2021/09/02 08:41:14;;;;;;;12.30;8.93;;;16.40;99.90;;;;;;4993518;28;20446;-66
2021/09/02 08:43:42;;;;;;;9.67;8.63;;;16.50;99.90;;;;;;4994842;28;20469;-66
2021/09/02 08:46:09;;;;;;;10.80;9.00;;;16.70;99.90;;;;;;4998743;28;20935;-65
2021/09/02 08:48:40;;;;;;;9.83;8.47;;;16.80;99.90;;;;;;4997388;28;20461;-65
2021/09/02 08:51:08;;;;;;;10.30;9.00;;;17.00;99.90;;;;;;5008702;28;20446;-65
2021/09/02 08:53:35;;;;;;;12.93;9.10;;;17.10;99.90;;;;;;5000584;28;20483;-65
2021/09/02 08:56:03;;;;;;;8.47;7.57;;;17.20;99.90;;;;;;4994466;28;21145;-65
2021/09/02 08:58:31;;;;;;;8.93;8.03;;;17.40;99.90;;;;;;4999269;28;20529;-65
2021/09/02 09:00:59;;;;;;;11.13;8.40;;;17.50;99.90;;;;;;4999703;28;20445;-66
2021/09/02 09:03:27;;;;;;;10.57;7.87;;;17.60;99.90;;;;;;5000144;28;20462;-66
2021/09/02 09:05:56;;;;;;;10.40;8.40;;;17.70;99.90;;;;;;4999773;28;20442;-66
2021/09/02 09:08:34;;;;;;;8.90;8.00;;;17.80;99.90;;;;;;4998776;28;20446;-66
2021/09/02 09:11:21;;;;;;;9.80;7.77;;;18.00;99.90;;;;;;4995391;28;20442;-65
2021/09/02 09:13:48;;;;;;;9.20;8.30;;;18.20;99.90;;;;;;5000470;28;20465;-65
2021/09/02 09:16:15;;;;;;;12.23;8.90;;;18.40;99.90;;;;;;4999729;28;21160;-65
2021/09/02 09:18:45;;;;;;;8.37;7.47;;;18.60;99.90;;;;;;4999188;28;20448;-65
2021/09/02 09:21:14;;;;;;;9.50;7.90;;;18.80;99.90;;;;;;5000222;28;20942;-65
2021/09/02 09:23:58;;;;;;;9.73;7.80;;;19.10;99.90;;;;;;5005627;28;20470;-66
2021/09/02 09:26:26;;;;;;;10.30;7.20;;;19.70;99.90;;;;;;5007831;28;20513;-65
2021/09/02 09:28:55;;;;;;;9.60;7.47;;;20.10;99.90;;;;;;5018250;28;20449;-66
2021/09/02 09:31:30;;;;;;;8.37;7.57;;;20.70;99.90;;;;;;4988447;28;21114;-66
2021/09/02 09:33:59;;;;;;;7.30;6.60;;;20.90;99.90;;;;;;4988655;28;20476;-66
2021/09/02 09:36:28;;;;;;;8.50;7.60;;;21.30;99.90;;;;;;4988538;28;20989;-66
2021/09/02 09:39:06;;;;;;;8.10;7.00;;;21.50;99.90;;;;;;4988508;28;20497;-66
2021/09/02 09:41:35;;;;;;;8.87;7.97;;;21.80;99.90;;;;;;4988253;28;20450;-66
2021/09/02 09:44:23;;;;;;;12.50;8.40;;;22.30;99.90;;;;;;4992854;28;20465;-66
2021/09/02 09:47:14;;;;;;;8.60;6.70;;;22.90;99.90;;;;;;5003353;28;20580;-66
2021/09/02 09:49:53;;;;;;;8.10;7.27;;;22.50;99.90;;;;;;5008396;28;20528;-66
2021/09/02 09:52:26;;;;;;;8.30;7.40;;;22.10;99.90;;;;;;5008164;28;20441;-66
2021/09/02 09:55:00;;;;;;;7.30;6.60;;;22.20;99.90;;;;;;5008075;28;21213;-65
2021/09/02 09:57:30;;;;;;;8.20;6.97;;;21.90;99.90;;;;;;5002062;28;20447;-65
2021/09/02 10:00:00;;;;;;;8.30;7.37;;;21.90;99.90;;;;;;5000472;28;20446;-66
2021/09/02 10:02:28;;;;;;;8.50;7.47;;;22.20;99.90;;;;;;5000612;28;20465;-66
2021/09/02 10:04:57;;;;;;;7.67;6.97;;;22.70;99.90;;;;;;4994592;28;20485;-66
2021/09/02 10:07:24;;;;;;;9.43;7.10;;;23.30;99.90;;;;;;4991983;28;20485;-66
2021/09/02 10:09:53;;;;;;;7.90;6.60;;;24.00;99.90;;;;;;4994855;28;20451;-67
2021/09/02 10:12:22;;;;;;;11.00;7.20;;;24.40;99.90;;;;;;4999657;28;20775;-66
2021/09/02 10:14:50;;;;;;;6.90;6.20;;;24.80;99.90;;;;;;4999560;28;20944;-66
2021/09/02 10:17:16;;;;;;;7.30;6.60;;;24.90;99.90;;;;;;4991930;28;20442;-66
2021/09/02 10:19:45;;;;;;;8.27;7.07;;;25.00;99.90;;;;;;4991876;28;20461;-67
2021/09/02 10:22:12;;;;;;;8.33;6.70;;;25.00;99.90;;;;;;4991410;28;20451;-66
2021/09/02 10:24:40;;;;;;;7.90;6.40;;;24.90;99.90;;;;;;4991647;28;20452;-67
2021/09/02 10:27:37;;;;;;;9.20;6.17;;;24.90;99.90;;;;;;5011424;28;20546;-66
2021/09/02 10:30:23;;;;;;;8.50;6.97;;;25.00;99.90;;;;;;5013708;28;20456;-66
2021/09/02 10:32:50;;;;;;;7.00;5.70;;;25.30;99.90;;;;;;5022069;28;20523;-66
2021/09/02 10:35:38;;;;;;;6.93;6.23;;;25.50;99.90;;;;;;5025806;28;20445;-67
2021/09/02 10:38:06;;;;;;;7.03;6.30;;;25.30;99.90;;;;;;5017352;28;20459;-67
2021/09/02 10:40:48;;;;;;;8.33;5.87;;;25.70;99.90;;;;;;5030936;28;20445;-67
2021/09/02 10:43:35;;;;;;;7.10;6.00;;;26.20;99.20;;;;;;5030182;28;20457;-67
2021/09/02 10:46:01;;;;;;;7.10;6.33;;;26.60;99.30;;;;;;5030780;28;20445;-67
2021/09/02 10:48:29;;;;;;;7.17;6.47;;;26.90;97.70;;;;;;5030679;28;20524;-67
2021/09/02 10:50:57;;;;;;;6.97;6.30;;;27.20;98.20;;;;;;5010759;28;21065;-67
2021/09/02 10:53:25;;;;;;;9.43;6.03;;;27.50;96.80;;;;;;5011280;28;20497;-68
2021/09/02 10:55:54;;;;;;;6.23;5.50;;;27.80;95.80;;;;;;5011233;28;20511;-68
2021/09/02 10:58:48;;;;;;;6.43;5.70;;;28.10;95.60;;;;;;5012895;28;20450;-69
2021/09/02 11:01:26;;;;;;;6.53;5.90;;;27.90;94.50;;;;;;5012405;28;20437;-67
2021/09/02 11:03:55;;;;;;;7.47;6.17;;;27.80;95.80;;;;;;5012141;28;20548;-67
2021/09/02 11:06:22;;;;;;;7.40;6.63;;;28.00;95.00;;;;;;5012317;28;20541;-66
2021/09/02 11:08:48;;;;;;;7.20;6.37;;;28.30;94.10;;;;;;5012417;28;20921;-66
2021/09/02 11:11:17;;;;;;;6.80;6.07;;;28.60;93.50;;;;;;5012784;28;20450;-67
2021/09/02 11:13:48;;;;;;;6.80;6.20;;;28.60;93.50;;;;;;5012355;28;20466;-66
2021/09/02 11:16:16;;;;;;;7.60;5.80;;;28.80;91.90;;;;;;5012362;28;20449;-66
2021/09/02 11:18:44;;;;;;;7.00;6.23;;;28.50;92.80;;;;;;5008844;28;20532;-66
2021/09/02 11:21:13;;;;;;;5.43;4.77;;;28.50;93.10;;;;;;5018855;28;20454;-66
2021/09/02 11:23:40;;;;;;;7.90;5.90;;;28.80;92.60;;;;;;5021663;28;20540;-66
2021/09/02 11:26:08;;;;;;;6.20;5.60;;;29.00;91.20;;;;;;5030185;28;20457;-66
2021/09/02 11:28:49;;;;;;;8.50;5.60;;;29.20;90.60;;;;;;5029778;28;20491;-66
2021/09/02 11:31:16;;;;;;;7.73;5.90;;;29.20;89.60;;;;;;5029502;28;20441;-67
2021/09/02 11:33:47;;;;;;;6.50;5.60;;;29.60;91.30;;;;;;5029581;28;20475;-66
2021/09/02 11:36:14;;;;;;;6.30;5.70;;;30.30;91.00;;;;;;5029690;28;20471;-67
2021/09/02 11:38:42;;;;;;;6.50;5.90;;;30.90;89.90;;;;;;5029809;28;20451;-67
2021/09/02 11:41:16;;;;;;;7.70;6.23;;;31.40;86.20;;;;;;5029493;28;20531;-64
2021/09/02 11:43:43;;;;;;;5.90;5.30;;;31.60;84.80;;;;;;5029974;28;20469;-66
2021/09/02 11:46:12;;;;;;;6.80;6.20;;;31.80;81.70;;;;;;5029639;28;20547;-66
2021/09/02 11:48:46;;;;;;;6.77;5.77;;;32.00;76.10;;;;;;5029335;28;20855;-67
2021/09/02 11:51:19;;;;;;;6.07;5.47;;;32.40;82.60;;;;;;5029206;28;20448;-67
2021/09/02 11:53:47;;;;;;;5.80;4.87;;;32.30;77.60;;;;;;5028778;28;20559;-67
2021/09/02 11:56:18;;;;;;;6.30;5.70;;;32.60;78.40;;;;;;5029153;28;20448;-67
2021/09/02 11:58:45;;;;;;;5.83;5.23;;;33.10;78.90;;;;;;5029528;28;20453;-66
2021/09/02 12:01:14;;;;;;;5.77;5.27;;;33.70;75.00;;;;;;5028949;28;20535;-67
2021/09/02 12:03:49;;;;;;;5.77;4.67;;;33.70;74.30;;;;;;5029030;28;20476;-67
2021/09/02 12:06:17;;;;;;;6.33;5.17;;;34.10;68.30;;;;;;5029329;28;20490;-65
2021/09/02 12:08:44;;;;;;;6.17;5.20;;;34.30;66.30;;;;;;5030104;28;20575;-65
2021/09/02 12:11:11;;;;;;;5.57;5.07;;;33.80;74.60;;;;;;5029410;28;21060;-65
2021/09/02 12:13:39;;;;;;;6.10;4.93;;;34.30;72.40;;;;;;5022220;28;20668;-66
2021/09/02 12:16:08;;;;;;;5.80;5.13;;;34.70;67.70;;;;;;5008794;28;20461;-65
2021/09/02 12:18:38;;;;;;;5.27;4.77;;;34.20;66.70;;;;;;5010031;28;20817;-66
2021/09/02 12:21:14;;;;;;;6.90;5.00;;;34.80;68.40;;;;;;5010108;28;20456;-66
2021/09/02 12:23:45;;;;;;;6.50;5.20;;;35.00;66.90;;;;;;5010643;28;20473;-66
2021/09/02 12:26:13;;;;;;;4.90;4.43;;;35.30;64.50;;;;;;5010635;28;20450;-66
2021/09/02 12:28:41;;;;;;;4.83;4.33;;;35.80;60.80;;;;;;5010426;28;20487;-66
2021/09/02 12:31:18;;;;;;;5.70;5.07;;;36.30;61.90;;;;;;5010397;28;20460;-66
2021/09/02 12:34:04;;;;;;;5.53;5.03;;;36.60;63.10;;;;;;5009966;28;20899;-66
2021/09/02 12:36:33;;;;;;;5.77;5.17;;;36.80;58.90;;;;;;5010271;28;20991;-66
2021/09/02 12:39:18;;;;;;;5.40;4.40;;;36.70;58.70;;;;;;5010629;28;20537;-66
2021/09/02 12:41:47;;;;;;;5.60;4.50;;;37.00;58.50;;;;;;5009957;28;20530;-66